Time;durP1;ratioP1;P1;durP2;ratioP2;P2;SDS_P1;SDS_P2;PMS_P1;PMS_P2;Temp;Humidity;BMP_temperature;BMP_pressure;BME280_temperature;BME280_humidity;BME280_pressure;Samples;Min_cycle;Max_cycle;Signal;HPM_P1;HPM_P2
2021/04/02 05:32:20;;;;;;;7.70;5.95;;;;;;;3.79;68.87;100359.50;1780671;76;954098;-51
2021/04/02 05:34:47;;;;;;;8.33;5.87;;;;;;;3.81;69.14;100360.83;1792781;79;25403;-53
2021/04/02 05:37:13;;;;;;;8.58;5.55;;;;;;;3.90;69.21;100365.17;1788017;79;25787;-53
2021/04/02 05:39:40;;;;;;;8.20;6.25;;;;;;;3.96;69.00;100364.64;1791821;79;25274;-54
2021/04/02 05:42:09;;;;;;;8.23;6.53;;;;;;;4.00;69.00;100360.36;1789233;79;25718;-54
2021/04/02 05:44:38;;;;;;;8.15;6.70;;;;;;;4.05;69.00;100363.88;1744266;80;25652;-53
2021/04/02 05:47:08;;;;;;;8.68;5.90;;;;;;;4.06;68.95;100358.78;1736748;81;25502;-53
2021/04/02 05:49:36;;;;;;;7.22;5.35;;;;;;;4.12;68.70;100364.97;1730511;81;25476;-54
2021/04/02 05:52:03;;;;;;;10.60;6.37;;;;;;;4.17;68.75;100371.67;1732893;81;25820;-55
2021/04/02 05:54:35;;;;;;;6.70;5.97;;;;;;;4.20;68.59;100372.46;1734308;81;26704;-54
2021/04/02 05:57:10;;;;;;;8.05;5.65;;;;;;;4.28;68.29;100371.16;1849541;76;34930;-55
2021/04/02 05:59:43;;;;;;;7.85;5.42;;;;;;;4.16;67.95;100374.07;1819674;78;25291;-54
2021/04/02 06:02:12;;;;;;;8.90;6.50;;;;;;;4.16;68.04;100379.97;1819489;78;26693;-51
2021/04/02 06:04:39;;;;;;;8.08;5.95;;;;;;;4.17;68.20;100376.20;1819748;78;25511;-53
2021/04/02 06:07:06;;;;;;;10.72;6.17;;;;;;;4.23;68.41;100373.28;1819704;78;25446;-51
2021/04/02 06:09:32;;;;;;;9.43;6.47;;;;;;;4.32;68.30;100367.41;1819607;78;25658;-52
2021/04/02 06:12:00;;;;;;;9.75;6.15;;;;;;;4.37;68.19;100369.55;1819544;78;25433;-52
2021/04/02 06:14:27;;;;;;;7.22;6.53;;;;;;;4.39;68.02;100366.10;1819606;78;25704;-52
2021/04/02 06:16:54;;;;;;;6.70;5.42;;;;;;;4.46;68.15;100364.47;1819426;78;25417;-51
2021/04/02 06:19:22;;;;;;;8.10;5.55;;;;;;;4.52;67.94;100363.42;1819615;78;25280;-53
2021/04/02 06:21:55;;;;;;;6.22;5.08;;;;;;;4.55;67.47;100374.95;1819455;78;25511;-54
2021/04/02 06:24:45;;;;;;;6.67;5.37;;;;;;;4.53;67.51;100378.44;1819614;78;25467;-53
2021/04/02 06:27:13;;;;;;;7.17;5.80;;;;;;;4.60;67.64;100362.10;1819777;78;25894;-53
2021/04/02 06:29:44;;;;;;;8.73;5.50;;;;;;;4.76;67.88;100367.72;1788331;78;25481;-54
2021/04/02 06:32:14;;;;;;;7.65;5.83;;;;;;;4.94;67.75;100377.11;1819535;78;25317;-54
2021/04/02 06:34:47;;;;;;;6.25;5.08;;;;;;;5.18;68.06;100373.32;1819442;78;25358;-51
2021/04/02 06:37:16;;;;;;;6.47;5.42;;;;;;;5.33;67.13;100367.65;1819410;78;25538;-52
2021/04/02 06:39:52;;;;;;;6.58;5.30;;;;;;;5.47;66.98;100374.06;1819793;78;26790;-54
2021/04/02 06:42:33;;;;;;;6.92;5.40;;;;;;;5.61;66.76;100376.42;1819470;78;25277;-54
2021/04/02 06:45:06;;;;;;;6.47;5.45;;;;;;;5.71;66.31;100370.78;1819522;78;25538;-52
2021/04/02 06:47:37;;;;;;;7.80;5.45;;;;;;;5.80;65.92;100375.83;1789862;78;25580;-55
2021/04/02 06:50:25;;;;;;;7.15;5.12;;;;;;;6.02;66.11;100380.07;1819566;78;25438;-53
2021/04/02 06:52:56;;;;;;;8.28;5.45;;;;;;;6.29;65.82;100381.80;1739612;81;25852;-52
2021/04/02 06:55:25;;;;;;;6.37;5.33;;;;;;;6.61;65.40;100385.10;1741590;81;25498;-51
2021/04/02 06:57:55;;;;;;;5.72;5.15;;;;;;;6.79;64.09;100387.64;1758526;81;25558;-52
2021/04/02 07:00:26;;;;;;;5.40;4.90;;;;;;;6.78;63.42;100384.16;1758373;81;25355;-53
2021/04/02 07:03:03;;;;;;;5.70;4.85;;;;;;;6.90;63.29;100386.48;1889014;76;34978;-52
2021/04/02 07:05:31;;;;;;;5.13;4.63;;;;;;;6.95;62.99;100391.81;1860263;77;25427;-51
2021/04/02 07:08:08;;;;;;;8.90;5.67;;;;;;;7.33;63.37;100387.17;1860027;77;25777;-54
2021/04/02 07:10:40;;;;;;;9.00;5.92;;;;;;;7.61;63.11;100388.20;1827982;77;25462;-51
2021/04/02 07:13:09;;;;;;;11.00;6.30;;;;;;;7.86;62.21;100391.94;1859898;77;25436;-52
2021/04/02 07:15:37;;;;;;;10.23;6.90;;;;;;;8.15;62.02;100382.95;1860037;77;25266;-52
2021/04/02 07:18:07;;;;;;;11.12;7.85;;;;;;;8.64;61.87;100388.24;1859993;77;25500;-52
2021/04/02 07:20:35;;;;;;;9.48;7.95;;;;;;;9.07;61.54;100383.47;1859993;77;25682;-55
2021/04/02 07:23:02;;;;;;;8.93;7.28;;;;;;;9.33;60.32;100380.31;1859778;77;25566;-55
2021/04/02 07:25:31;;;;;;;9.65;7.03;;;;;;;9.32;59.42;100379.52;1860018;77;25304;-52
2021/04/02 07:27:58;;;;;;;8.10;7.30;;;;;;;9.32;58.83;100384.92;1859917;77;25488;-53
2021/04/02 07:30:27;;;;;;;9.43;6.92;;;;;;;9.56;58.99;100368.30;1859944;77;25229;-56
2021/04/02 07:32:59;;;;;;;9.95;6.58;;;;;;;9.94;58.22;100376.97;1860057;77;26782;-52
2021/04/02 07:35:26;;;;;;;11.18;7.58;;;;;;;10.24;57.58;100376.08;1859932;77;25244;-53
2021/04/02 07:37:57;;;;;;;10.50;7.20;;;;;;;10.72;57.86;100386.34;1859938;77;25490;-52
2021/04/02 07:40:30;;;;;;;9.83;7.78;;;;;;;11.24;56.86;100392.66;1859876;77;25525;-52
2021/04/02 07:43:01;;;;;;;10.35;7.05;;;;;;;11.51;55.95;100390.84;1859809;77;25371;-51
2021/04/02 07:45:32;;;;;;;7.22;6.53;;;;;;;11.87;55.04;100388.52;1859676;77;25890;-53
2021/04/02 07:48:15;;;;;;;7.45;6.47;;;;;;;12.17;53.98;100395.53;1859725;77;25427;-54
2021/04/02 07:50:57;;;;;;;7.90;5.87;;;;;;;12.40;53.25;100393.48;1859935;77;25440;-53
2021/04/02 07:53:35;;;;;;;8.13;7.15;;;;;;;12.84;53.23;100387.48;1859691;77;25401;-54
2021/04/02 07:56:19;;;;;;;9.35;6.92;;;;;;;13.25;52.06;100381.47;1859988;77;25437;-52
2021/04/02 07:58:50;;;;;;;9.80;7.22;;;;;;;13.57;51.16;100379.84;1859923;77;25914;-55
2021/04/02 08:01:24;;;;;;;9.90;6.85;;;;;;;13.97;50.83;100384.35;1855685;76;25493;-52
2021/04/02 08:03:53;;;;;;;8.68;7.62;;;;;;;14.47;50.47;100381.92;1834598;77;25566;-53
2021/04/02 08:06:37;;;;;;;8.33;7.30;;;;;;;14.91;48.93;100381.81;1834821;78;25466;-53
2021/04/02 08:09:08;;;;;;;9.40;7.28;;;;;;;15.04;47.41;100383.20;1834625;78;25264;-55
2021/04/02 08:11:39;;;;;;;11.22;7.65;;;;;;;15.12;46.82;100376.86;1834700;78;26780;-52
2021/04/02 08:14:09;;;;;;;9.00;7.53;;;;;;;15.23;46.21;100374.49;1834088;78;25624;-54
2021/04/02 08:16:46;;;;;;;9.43;7.10;;;;;;;15.62;45.35;100377.13;1834278;78;25402;-55
2021/04/02 08:19:27;;;;;;;6.95;6.25;;;;;;;15.89;45.04;100380.91;1834126;78;25316;-55
2021/04/02 08:21:59;;;;;;;9.03;6.53;;;;;;;16.41;44.93;100386.92;1833954;78;25329;-51
2021/04/02 08:24:31;;;;;;;8.38;6.22;;;;;;;17.00;43.94;100382.73;1834049;78;25689;-54
2021/04/02 08:26:59;;;;;;;6.92;5.97;;;;;;;17.35;42.97;100373.29;1833521;78;25249;-55
2021/04/02 08:29:27;;;;;;;6.80;6.10;;;;;;;17.63;42.16;100368.86;1797617;79;25274;-55
2021/04/02 08:32:05;;;;;;;7.15;5.97;;;;;;;17.68;41.78;100368.59;1797592;79;34712;-54
2021/04/02 08:34:34;;;;;;;6.08;5.47;;;;;;;18.09;42.14;100357.61;1794603;80;25449;-55
2021/04/02 08:37:04;;;;;;;;;;;;;;;18.31;40.89;100365.50;1797242;79;26616;-53
2021/04/02 08:39:32;;;;;;;7.87;5.72;;;;;;;18.41;39.84;100356.13;1794469;80;25514;-56
2021/04/02 08:42:03;;;;;;;6.80;5.12;;;;;;;18.53;39.92;100350.30;1783041;80;25679;-54
2021/04/02 08:44:45;;;;;;;6.75;6.15;;;;;;;18.85;38.93;100353.09;1766146;81;25309;-55
2021/04/02 08:47:15;;;;;;;5.80;5.28;;;;;;;19.02;38.31;100347.71;1794628;80;25493;-53
2021/04/02 08:49:54;;;;;;;6.37;5.22;;;;;;;19.14;37.94;100348.11;1794534;80;25961;-52
2021/04/02 08:52:25;;;;;;;5.67;4.42;;;;;;;19.36;37.67;100342.99;1794376;79;25268;-54
2021/04/02 08:55:03;;;;;;;7.00;4.50;;;;;;;19.25;35.61;100343.39;1794519;80;25276;-56
2021/04/02 08:57:32;;;;;;;9.15;5.08;;;;;;;18.97;36.09;100345.27;1794475;79;25269;-55
2021/04/02 09:00:02;;;;;;;4.92;3.55;;;;;;;19.06;36.06;100341.51;1794542;80;25441;-56
2021/04/02 09:02:31;;;;;;;6.20;3.98;;;;;;;19.14;34.85;100339.11;1789634;80;25965;-55
2021/04/02 09:05:06;;;;;;;4.30;3.87;;;;;;;19.12;34.55;100339.47;1821584;78;25610;-55
2021/04/02 09:07:39;;;;;;;6.30;4.40;;;;;;;19.29;35.04;100333.25;1821570;78;25297;-54
2021/04/02 09:10:11;;;;;;;5.47;4.25;;;;;;;19.38;34.43;100328.33;1821547;78;25403;-55
2021/04/02 09:12:37;;;;;;;5.20;3.90;;;;;;;19.14;33.18;100324.03;1788847;80;25506;-54
2021/04/02 09:15:07;;;;;;;6.83;4.55;;;;;;;19.12;33.45;100324.39;1821497;78;25769;-56
2021/04/02 09:17:34;;;;;;;5.22;4.58;;;;;;;18.89;33.06;100317.52;1821661;78;25639;-53
2021/04/02 09:20:03;;;;;;;5.62;4.22;;;;;;;18.67;33.09;100320.42;1789098;80;25317;-54
2021/04/02 09:22:31;;;;;;;5.42;4.37;;;;;;;18.99;33.98;100322.40;1816427;78;25256;-54
2021/04/02 09:24:58;;;;;;;4.20;3.90;;;;;;;19.37;32.88;100321.25;1821510;78;25526;-55
2021/04/02 09:27:24;;;;;;;6.50;3.90;;;;;;;19.23;30.37;100313.00;1789642;78;25772;-55
2021/04/02 09:29:56;;;;;;;5.30;4.08;;;;;;;19.07;32.88;100324.70;1821378;78;25760;-55
2021/04/02 09:32:29;;;;;;;6.05;4.12;;;;;;;19.56;33.64;100320.36;1821442;78;25679;-55
2021/04/02 09:34:59;;;;;;;7.95;3.60;;;;;;;19.84;32.97;100321.38;1821483;78;25509;-53
2021/04/02 09:37:28;;;;;;;7.22;3.95;;;;;;;20.18;32.81;100319.28;1821708;78;25284;-53
2021/04/02 09:40:02;;;;;;;3.47;3.17;;;;;;;20.42;31.92;100325.64;1784402;80;32572;-55
2021/04/02 09:42:33;;;;;;;5.17;3.60;;;;;;;20.24;30.50;100328.16;1821291;78;25442;-54
2021/04/02 09:45:08;;;;;;;3.40;3.10;;;;;;;20.19;30.84;100320.84;1821607;78;25319;-53
2021/04/02 09:47:46;;;;;;;3.87;2.90;;;;;;;20.39;26.90;100304.41;1821581;78;25467;-55
2021/04/02 09:50:16;;;;;;;4.47;3.23;;;;;;;20.10;29.30;100319.16;1821809;78;25276;-53
2021/04/02 09:52:45;;;;;;;5.28;3.05;;;;;;;20.25;30.20;100316.02;1821415;78;26946;-52
2021/04/02 09:55:14;;;;;;;4.42;2.70;;;;;;;20.55;30.06;100308.33;1789199;80;25447;-55
2021/04/02 09:57:41;;;;;;;3.52;2.90;;;;;;;20.90;29.40;100295.52;1821594;78;25577;-53
2021/04/02 10:00:11;;;;;;;3.00;2.02;;;;;;;21.28;28.64;100299.55;1821428;78;25455;-54
2021/04/02 10:02:39;;;;;;;3.67;2.20;;;;;;;21.80;28.09;100295.41;1821371;78;25455;-53
2021/04/02 10:05:09;;;;;;;2.95;2.10;;;;;;;22.34;26.57;100291.53;1821611;78;25752;-54
2021/04/02 10:07:36;;;;;;;4.58;2.40;;;;;;;22.64;26.58;100294.53;1821399;78;25257;-55
2021/04/02 10:10:07;;;;;;;2.30;1.85;;;;;;;23.15;26.62;100281.59;1821415;78;25422;-54
2021/04/02 10:12:34;;;;;;;4.10;2.05;;;;;;;23.74;26.04;100279.72;1789136;80;25442;-56
2021/04/02 10:15:04;;;;;;;4.42;2.00;;;;;;;24.21;25.49;100281.13;1821452;78;25285;-52
2021/04/02 10:17:31;;;;;;;;;;;;;;;24.66;23.21;100270.03;1822523;78;25721;-56
2021/04/02 10:19:59;;;;;;;2.33;2.12;;;;;;;24.97;24.14;100289.73;1821641;78;25545;-56
2021/04/02 10:22:26;;;;;;;2.65;2.10;;;;;;;25.53;24.19;100275.02;1821292;78;25431;-55
2021/04/02 10:24:54;;;;;;;2.65;2.25;;;;;;;26.03;23.82;100269.52;1821485;78;25462;-55
2021/04/02 10:27:21;;;;;;;2.65;2.30;;;;;;;26.46;22.54;100267.56;1821503;78;25441;-55
2021/04/02 10:29:47;;;;;;;3.70;2.30;;;;;;;26.59;23.01;100260.20;1821420;78;25840;-52
2021/04/02 10:32:14;;;;;;;2.35;2.12;;;;;;;27.09;23.07;100265.59;1788916;80;25681;-52
2021/04/02 10:34:42;;;;;;;2.80;2.10;;;;;;;27.54;22.56;100265.17;1821464;78;25263;-56
2021/04/02 10:37:08;;;;;;;3.25;2.27;;;;;;;27.29;20.89;100264.86;1821361;78;25559;-55
2021/04/02 10:39:35;;;;;;;2.55;2.15;;;;;;;27.02;21.96;100253.20;1821424;78;25294;-55
2021/04/02 10:42:02;;;;;;;3.50;2.22;;;;;;;27.00;21.72;100252.84;1821293;78;25794;-56
2021/04/02 10:44:29;;;;;;;4.53;2.55;;;;;;;27.22;21.99;100256.02;1789091;80;25507;-56
2021/04/02 10:46:56;;;;;;;2.55;2.10;;;;;;;27.43;21.65;100249.34;1821414;78;25453;-55
2021/04/02 10:49:23;;;;;;;2.52;1.87;;;;;;;27.49;20.08;100245.45;1821487;78;25267;-56
2021/04/02 10:51:50;;;;;;;8.23;2.25;;;;;;;26.67;17.43;100221.31;1821413;78;25521;-53
2021/04/02 10:54:20;;;;;;;3.83;2.15;;;;;;;26.08;20.49;100239.38;1821500;78;26779;-55
2021/04/02 10:56:47;;;;;;;1.70;1.60;;;;;;;26.47;20.44;100238.61;1821430;78;25576;-52
2021/04/02 10:59:15;;;;;;;2.30;1.77;;;;;;;26.68;20.84;100236.73;1821382;78;25512;-55
2021/04/02 11:01:42;;;;;;;2.12;1.60;;;;;;;26.54;19.24;100222.46;1787305;80;25063;-56
2021/04/02 11:04:09;;;;;;;3.27;1.82;;;;;;;25.93;19.54;100220.53;1824657;78;25488;-52
2021/04/02 11:06:35;;;;;;;3.85;2.00;;;;;;;25.38;19.15;100235.62;1824836;78;25761;-52
2021/04/02 11:09:04;;;;;;;3.27;1.70;;;;;;;25.38;19.82;100232.08;1824828;78;25456;-54
2021/04/02 11:11:30;;;;;;;4.40;1.97;;;;;;;25.25;20.08;100235.34;1825201;78;25437;-54
2021/04/02 11:13:57;;;;;;;4.08;2.15;;;;;;;25.20;19.50;100233.59;1824879;78;25323;-52
2021/04/02 11:16:24;;;;;;;2.25;2.05;;;;;;;25.17;20.21;100235.22;1824879;78;25289;-53
2021/04/02 11:18:51;;;;;;;2.77;2.20;;;;;;;25.38;20.48;100223.77;1792406;80;25793;-55
2021/04/02 11:21:18;;;;;;;4.22;2.10;;;;;;;25.42;19.25;100225.31;1824797;78;25279;-54
2021/04/02 11:23:45;;;;;;;5.00;2.40;;;;;;;25.28;20.21;100216.53;1824775;78;25226;-55
2021/04/02 11:26:12;;;;;;;3.45;1.90;;;;;;;25.27;19.86;100229.42;1824801;78;25427;-55
2021/04/02 11:28:40;;;;;;;4.28;2.80;;;;;;;24.81;19.59;100225.87;1824927;78;25267;-55
2021/04/02 11:31:07;;;;;;;4.42;2.52;;;;;;;24.40;20.33;100221.02;1792417;80;25962;-54
2021/04/02 11:33:34;;;;;;;2.75;2.25;;;;;;;24.12;19.76;100218.60;1824722;78;25546;-55
2021/04/02 11:36:02;;;;;;;4.95;2.92;;;;;;;23.76;20.11;100215.98;1792400;80;25495;-52
2021/04/02 11:38:30;;;;;;;4.37;3.12;;;;;;;23.58;20.35;100220.78;1824813;78;25323;-55
2021/04/02 11:40:58;;;;;;;;;;;;;;;23.07;19.12;100209.08;1827676;78;25331;-54
2021/04/02 11:43:25;;;;;;;6.35;3.27;;;;;;;22.47;19.30;100210.05;1824742;78;26671;-54
2021/04/02 11:45:52;;;;;;;3.67;3.02;;;;;;;22.01;20.25;100209.34;1824724;78;25510;-55
2021/04/02 11:48:19;;;;;;;3.27;2.98;;;;;;;21.96;21.27;100201.45;1825052;78;25485;-55
2021/04/02 11:50:46;;;;;;;4.10;2.77;;;;;;;21.83;20.36;100204.56;1825055;78;25440;-53
2021/04/02 11:53:13;;;;;;;3.22;2.90;;;;;;;21.86;21.66;100203.59;1824942;78;25493;-55
2021/04/02 11:55:40;;;;;;;2.80;2.50;;;;;;;22.01;20.32;100200.51;1791927;80;25926;-54
2021/04/02 11:58:07;;;;;;;5.80;3.00;;;;;;;21.95;21.01;100202.05;1824987;78;25257;-55
2021/04/02 12:00:34;;;;;;;4.37;2.77;;;;;;;22.06;20.31;100203.45;1825029;78;25311;-55
2021/04/02 12:03:01;;;;;;;2.72;2.10;;;;;;;21.86;20.82;100196.11;1823640;78;25237;-54
2021/04/02 12:05:27;;;;;;;3.75;2.25;;;;;;;21.93;20.96;100196.72;1821612;78;25281;-53
2021/04/02 12:07:55;;;;;;;4.42;2.50;;;;;;;21.90;20.05;100192.02;1821569;78;25690;-55
2021/04/02 12:10:22;;;;;;;3.27;2.40;;;;;;;21.55;20.48;100190.09;1821467;78;25444;-54
2021/04/02 12:12:49;;;;;;;5.30;2.22;;;;;;;21.57;21.10;100196.59;1821470;78;25620;-54
2021/04/02 12:15:17;;;;;;;4.70;2.52;;;;;;;21.58;21.03;100191.30;1821511;78;25508;-54
2021/04/02 12:17:45;;;;;;;3.98;2.42;;;;;;;21.78;21.21;100182.92;1821561;78;25512;-55
2021/04/02 12:20:15;;;;;;;4.22;2.55;;;;;;;21.88;21.10;100182.77;1789271;78;25709;-53
2021/04/02 12:22:44;;;;;;;3.90;3.05;;;;;;;22.06;21.05;100180.64;1784226;80;25115;-54
2021/04/02 12:25:14;;;;;;;3.85;2.83;;;;;;;22.20;20.99;100172.39;1821511;78;25284;-55
2021/04/02 12:27:42;;;;;;;4.75;3.40;;;;;;;22.42;20.94;100175.21;1821588;78;25268;-53
2021/04/02 12:30:13;;;;;;;2.87;2.65;;;;;;;22.19;19.84;100167.48;1821558;78;25342;-54
2021/04/02 12:32:40;;;;;;;3.52;2.90;;;;;;;21.82;20.79;100163.06;1821472;78;25761;-55
2021/04/02 12:35:10;;;;;;;5.12;3.10;;;;;;;21.57;20.87;100159.44;1789070;80;25337;-55
2021/04/02 12:37:37;;;;;;;6.90;2.90;;;;;;;21.66;20.84;100153.57;1821578;78;25518;-55
2021/04/02 12:40:09;;;;;;;3.83;2.80;;;;;;;21.71;21.49;100147.69;1789090;80;26003;-55
2021/04/02 12:42:37;;;;;;;4.70;2.70;;;;;;;21.91;21.64;100146.17;1821488;78;25445;-52
2021/04/02 12:45:07;;;;;;;3.52;2.92;;;;;;;21.99;20.52;100156.63;1821531;78;25694;-52
2021/04/02 12:47:34;;;;;;;3.27;2.98;;;;;;;21.44;20.05;100146.59;1821466;78;25467;-55
2021/04/02 12:50:03;;;;;;;4.60;3.27;;;;;;;20.98;20.79;100143.02;1821583;78;25540;-54
2021/04/02 12:52:30;;;;;;;4.15;3.52;;;;;;;20.89;21.37;100140.02;1789074;80;25379;-52
2021/04/02 12:54:59;;;;;;;3.80;3.20;;;;;;;21.03;22.19;100140.69;1821590;78;25477;-51
2021/04/02 12:57:26;;;;;;;4.87;3.55;;;;;;;21.21;21.56;100134.48;1789388;80;25769;-55
2021/04/02 12:59:52;;;;;;;3.40;3.10;;;;;;;21.23;21.32;100134.89;1821414;78;25380;-54
2021/04/02 13:02:19;;;;;;;4.37;2.85;;;;;;;21.08;21.61;100129.33;1821332;78;25204;-54
2021/04/02 13:04:45;;;;;;;4.45;2.50;;;;;;;21.11;21.37;100132.47;1787323;78;25237;-52
2021/04/02 13:07:12;;;;;;;4.15;2.70;;;;;;;21.13;20.97;100136.99;1764754;81;25253;-53
2021/04/02 13:09:40;;;;;;;3.22;2.60;;;;;;;21.00;21.12;100132.42;1764673;81;25768;-54
2021/04/02 13:12:09;;;;;;;4.35;2.50;;;;;;;20.83;21.26;100133.88;1764525;81;25787;-53
2021/04/02 13:14:37;;;;;;;5.30;3.30;;;;;;;20.70;20.90;100127.89;1764838;81;25282;-51
2021/04/02 13:17:06;;;;;;;2.65;2.45;;;;;;;20.49;21.70;100121.63;1764692;81;25470;-53
2021/04/02 13:19:34;;;;;;;3.77;2.17;;;;;;;20.54;22.10;100122.66;1764904;81;25276;-52
2021/04/02 13:22:04;;;;;;;2.83;2.30;;;;;;;20.56;22.12;100116.78;1764678;81;25713;-57
2021/04/02 13:24:31;;;;;;;5.60;2.77;;;;;;;20.35;21.37;100108.58;1735502;81;25341;-51
2021/04/02 13:26:58;;;;;;;4.00;2.45;;;;;;;20.28;21.80;100108.52;1764711;81;25227;-51
2021/04/02 13:29:25;;;;;;;5.95;2.42;;;;;;;20.34;21.49;100111.89;1764675;81;25245;-55
2021/04/02 13:31:52;;;;;;;2.25;2.05;;;;;;;20.29;21.52;100105.37;1764672;81;25541;-54
2021/04/02 13:34:18;;;;;;;6.50;4.92;;;;;;;20.34;21.54;100099.53;1764799;81;26818;-55
2021/04/02 13:36:45;;;;;;;4.55;3.05;;;;;;;20.24;21.52;100097.48;1764715;81;25602;-55
2021/04/02 13:39:11;;;;;;;4.80;3.30;;;;;;;20.24;21.63;100100.82;1764674;81;25482;-50
2021/04/02 13:41:38;;;;;;;7.85;3.45;;;;;;;20.22;22.01;100092.95;1764563;81;25305;-54
2021/04/02 13:44:06;;;;;;;7.70;3.80;;;;;;;20.31;22.13;100093.45;1764743;81;25345;-54
2021/04/02 13:46:33;;;;;;;5.20;3.40;;;;;;;20.49;22.19;100088.08;1764856;81;25897;-54
2021/04/02 13:49:00;;;;;;;4.92;3.47;;;;;;;20.35;21.78;100094.84;1764706;81;25579;-55
2021/04/02 13:51:28;;;;;;;3.80;3.40;;;;;;;20.24;21.69;100091.20;1764607;81;25413;-51
2021/04/02 13:53:55;;;;;;;5.15;3.70;;;;;;;20.04;21.29;100094.75;1764670;81;25503;-55
2021/04/02 13:56:22;;;;;;;4.25;3.77;;;;;;;19.82;21.51;100089.08;1764708;81;25489;-52
2021/04/02 13:58:49;;;;;;;5.97;4.00;;;;;;;19.69;22.13;100083.61;1764646;81;28090;-53
2021/04/02 14:01:15;;;;;;;5.22;4.05;;;;;;;19.60;22.35;100091.55;1764710;81;25491;-51
2021/04/02 14:03:42;;;;;;;5.10;3.45;;;;;;;19.45;22.31;100068.47;1785827;78;25480;-51
2021/04/02 14:06:10;;;;;;;5.50;3.52;;;;;;;19.30;22.04;100072.98;1819366;78;25563;-55
2021/04/02 14:08:37;;;;;;;4.35;3.67;;;;;;;19.02;22.20;100072.84;1819568;78;25339;-54
2021/04/02 14:11:04;;;;;;;3.92;3.05;;;;;;;18.78;22.25;100067.17;1786935;78;25859;-52
2021/04/02 14:13:32;;;;;;;3.42;2.95;;;;;;;18.66;22.25;100058.59;1819222;78;25489;-52
2021/04/02 14:15:58;;;;;;;3.27;2.62;;;;;;;18.34;21.87;100062.22;1819495;78;25438;-54
2021/04/02 14:18:25;;;;;;;5.17;3.40;;;;;;;18.13;22.23;100066.19;1819371;78;25439;-51
2021/04/02 14:20:52;;;;;;;3.72;2.90;;;;;;;17.84;22.11;100054.75;1819408;78;25423;-54
2021/04/02 14:23:18;;;;;;;5.62;3.00;;;;;;;17.64;22.63;100069.59;1827407;78;25700;-53
2021/04/02 14:25:45;;;;;;;4.05;2.92;;;;;;;17.50;22.80;100057.25;1827433;78;25488;-52
2021/04/02 14:28:12;;;;;;;3.45;3.12;;;;;;;17.49;23.14;100057.61;1827487;78;25509;-51
2021/04/02 14:30:42;;;;;;;3.45;2.33;;;;;;;17.49;23.04;100058.39;1827577;78;25436;-54
2021/04/02 14:33:11;;;;;;;5.67;2.58;;;;;;;17.47;23.34;100052.50;1794888;80;25551;-51
2021/04/02 14:35:41;;;;;;;3.30;2.90;;;;;;;17.46;22.84;100049.54;1827870;78;25691;-53
2021/04/02 14:38:13;;;;;;;3.30;3.00;;;;;;;17.25;22.58;100057.34;1827397;78;25306;-52
2021/04/02 14:40:43;;;;;;;5.22;3.55;;;;;;;17.13;22.99;100054.95;1827518;78;25330;-54
2021/04/02 14:43:11;;;;;;;4.55;3.58;;;;;;;17.07;23.23;100047.40;1794039;80;25387;-50
2021/04/02 14:45:38;;;;;;;4.40;3.47;;;;;;;16.94;23.89;100050.27;1811382;78;25348;-51
2021/04/02 14:48:06;;;;;;;4.17;3.67;;;;;;;16.79;24.26;100049.13;1827528;78;25748;-51
2021/04/02 14:50:36;;;;;;;4.25;3.70;;;;;;;16.70;24.80;100049.92;1827590;78;25295;-55
2021/04/02 14:53:03;;;;;;;;;;;;;;;16.78;24.74;100050.85;1830292;78;25493;-50
2021/04/02 14:55:31;;;;;;;5.37;4.03;;;;;;;16.77;24.22;100047.89;1793349;80;25372;-54
2021/04/02 14:57:58;;;;;;;4.92;3.87;;;;;;;16.75;24.45;100046.91;1827588;78;25326;-52
2021/04/02 15:00:26;;;;;;;5.50;4.03;;;;;;;16.84;24.46;100045.38;1827480;78;25684;-54
2021/04/02 15:02:54;;;;;;;6.03;4.70;;;;;;;16.82;24.01;100040.78;1794721;80;25325;-50
2021/04/02 15:05:24;;;;;;;6.25;4.35;;;;;;;16.56;23.88;100042.17;1821775;78;25543;-51
2021/04/02 15:07:51;;;;;;;6.25;4.00;;;;;;;16.25;24.09;100035.61;1821498;78;25275;-51
2021/04/02 15:10:21;;;;;;;7.40;4.55;;;;;;;16.08;24.56;100036.56;1821395;78;25449;-53
2021/04/02 15:12:48;;;;;;;7.25;4.42;;;;;;;15.88;24.29;100044.63;1788970;80;25898;-54
2021/04/02 15:15:19;;;;;;;6.62;5.22;;;;;;;15.54;24.48;100035.93;1821354;78;25487;-53
2021/04/02 15:17:46;;;;;;;6.40;4.95;;;;;;;15.31;24.39;100029.68;1821389;78;25284;-55
2021/04/02 15:20:18;;;;;;;5.72;4.70;;;;;;;15.12;25.03;100034.41;1789006;80;25486;-51
2021/04/02 15:22:46;;;;;;;5.33;4.62;;;;;;;15.02;25.21;100026.73;1821372;78;25278;-55
2021/04/02 15:25:15;;;;;;;6.47;4.62;;;;;;;14.88;25.24;100032.56;1789219;80;25794;-51
2021/04/02 15:27:43;;;;;;;6.25;4.83;;;;;;;14.59;25.31;100034.97;1821733;78;25520;-52
2021/04/02 15:30:13;;;;;;;6.70;4.30;;;;;;;14.41;25.70;100033.61;1821663;78;25336;-51
2021/04/02 15:32:41;;;;;;;8.33;4.50;;;;;;;14.26;25.86;100031.00;1789072;80;25502;-51
2021/04/02 15:35:09;;;;;;;7.85;4.67;;;;;;;14.14;25.99;100035.30;1821618;78;25336;-54
2021/04/02 15:37:52;;;;;;;5.97;4.62;;;;;;;14.04;26.35;100029.52;1821668;78;26573;-51
2021/04/02 15:40:22;;;;;;;7.35;5.53;;;;;;;13.88;26.56;100030.17;1789108;80;25440;-50
2021/04/02 15:42:50;;;;;;;5.95;4.67;;;;;;;13.72;26.96;100030.59;1821465;78;25328;-53
2021/04/02 15:45:19;;;;;;;6.45;4.42;;;;;;;13.66;27.18;100035.45;1821485;78;26100;-53
2021/04/02 15:47:46;;;;;;;5.75;4.30;;;;;;;13.62;27.29;100035.33;1821628;78;25317;-53
2021/04/02 15:50:15;;;;;;;6.80;4.28;;;;;;;13.56;27.40;100020.36;1787663;79;26023;-54
2021/04/02 15:52:46;;;;;;;8.15;5.10;;;;;;;13.52;27.39;100030.32;1821402;78;25435;-53
2021/04/02 15:55:15;;;;;;;8.78;4.75;;;;;;;13.39;27.26;100028.11;1821585;78;25458;-50
2021/04/02 15:57:43;;;;;;;5.62;4.40;;;;;;;13.22;27.47;100021.46;1789308;80;25503;-52
2021/04/02 16:00:15;;;;;;;10.45;4.50;;;;;;;13.05;27.70;100025.11;1821616;78;25480;-53
2021/04/02 16:02:45;;;;;;;6.22;4.55;;;;;;;12.87;28.08;100013.58;1820978;78;25711;-54
2021/04/02 16:05:13;;;;;;;5.95;4.45;;;;;;;12.71;28.43;100018.24;1789044;79;25547;-52
2021/04/02 16:07:41;;;;;;;7.03;4.27;;;;;;;12.54;28.54;100019.72;1821908;78;25344;-50
2021/04/02 16:10:11;;;;;;;7.67;4.45;;;;;;;12.35;28.75;100020.15;1821595;78;25507;-54
2021/04/02 16:12:40;;;;;;;6.87;4.35;;;;;;;12.19;29.07;100009.08;1787561;80;25328;-50
2021/04/02 16:15:09;;;;;;;5.53;4.00;;;;;;;12.06;29.23;100013.58;1821670;78;25694;-52
2021/04/02 16:17:36;;;;;;;8.10;4.58;;;;;;;11.91;29.63;100003.28;1821670;78;25469;-53
2021/04/02 16:20:06;;;;;;;7.60;5.37;;;;;;;11.80;29.84;100006.06;1821545;78;25326;-51
2021/04/02 16:22:34;;;;;;;9.13;5.12;;;;;;;11.67;29.96;100009.23;1821440;78;25297;-50
2021/04/02 16:25:02;;;;;;;6.00;4.53;;;;;;;11.52;30.37;100001.05;1821610;78;25502;-51
2021/04/02 16:27:31;;;;;;;6.47;4.57;;;;;;;11.41;30.63;100003.31;1821786;78;26168;-53
2021/04/02 16:29:59;;;;;;;6.00;4.15;;;;;;;11.29;30.78;100009.38;1821458;78;25454;-52
2021/04/02 16:32:28;;;;;;;8.78;4.87;;;;;;;11.18;31.12;100007.54;1789029;80;25633;-52
2021/04/02 16:34:56;;;;;;;5.72;4.22;;;;;;;11.07;31.37;100006.29;1821604;78;25245;-52
2021/04/02 16:37:25;;;;;;;8.65;4.60;;;;;;;10.95;31.47;100003.43;1821635;78;25451;-51
2021/04/02 16:39:55;;;;;;;7.40;4.70;;;;;;;10.82;31.78;100001.11;1821786;78;25799;-50
2021/04/02 16:42:23;;;;;;;6.37;4.78;;;;;;;10.69;32.07;100006.89;1821354;78;25246;-51
2021/04/02 16:44:50;;;;;;;7.45;4.85;;;;;;;10.58;32.36;100010.46;1821565;78;25305;-54
2021/04/02 16:47:17;;;;;;;6.65;4.62;;;;;;;10.44;32.56;100005.19;1789166;80;25466;-54
2021/04/02 16:49:45;;;;;;;6.53;4.53;;;;;;;10.34;32.89;100004.70;1821575;78;25445;-53
2021/04/02 16:52:12;;;;;;;8.45;5.10;;;;;;;10.25;33.06;100007.34;1821442;78;25686;-53
2021/04/02 16:54:39;;;;;;;6.47;4.28;;;;;;;10.13;33.16;100003.89;1821519;78;25496;-50
2021/04/02 16:57:08;;;;;;;6.70;4.50;;;;;;;10.03;33.49;100018.47;1821574;78;25484;-52
2021/04/02 16:59:36;;;;;;;5.65;4.35;;;;;;;9.93;33.82;100013.34;1821468;78;25428;-52
2021/04/02 17:02:04;;;;;;;6.97;4.50;;;;;;;9.87;34.00;100018.62;1821493;78;25534;-54
2021/04/02 17:04:31;;;;;;;6.53;4.70;;;;;;;9.80;34.36;100016.92;1821483;78;26608;-55
2021/04/02 17:06:58;;;;;;;9.35;4.22;;;;;;;9.71;34.63;100017.67;1824973;78;25536;-55